Aeroporto :
LOGIN :

Iscrizione | Disclaimer

   EN    FR    IT 

 










Sommario :    VFR   VFR Marginale   IFR   IFR Intensivo   IFR Molto Intensivo
Visibilità : 
Base nubi : 
>= 8 km
>= 3000ft
5 / 8 km
1000 / 3000 ft
1500m / 5 km
500 / 1000 ft
800 / 1500m
200 / 500 ft
< 800m
< 200 ft
Simboli :   Temporali  Nebbia  Neve Forte  Precipitazioni Forti  Vento > 20 kt
SIGMETs :   Varie  Temporali  Ghiacco  Turbolenza  Onda orograficha  Ceneri Vulcaniche






- Altitudine del aeroporto : 607 ft
- Codice IATA : BCM


LRBC - Bacău

ULTIMO METAR :
  • 020530Z 15004KT CAVOK 05/02 Q1016

METARs OBSOLETI :
  • 020500Z 19005KT CAVOK 05/02 Q1016
  • 020430Z 21003KT CAVOK 04/02 Q1016
  • 012100Z 19006KT CAVOK 06/03 Q1018
  • 020400Z 18003KT CAVOK 05/02 Q1016
  • 020330Z 16001KT CAVOK 05/02 Q1016
  • 020300Z VRB01KT CAVOK 05/02 Q1016
  • 020230Z 00000KT CAVOK 05/02 Q1017
  • 020200Z 17004KT CAVOK 05/02 Q1017
  • 020130Z 14004KT CAVOK 05/02 Q1017
  • 020100Z 14004KT CAVOK 05/02 Q1017

TAF TAF LRBC
Valido dal 02 a 06 ore il 02 a 15 ore UTC


020500Z 0206/0215 17008KT 9999 SCT045
TEMPO 0206/0209 5000 -RA



MetMap, La meteo Aeronautica in un colpo d'occhio ! - Copyright ORBIFLY Dicembre 2007 - Disclaimer

ORBIFLY MET'MAP TEAM :

Programmazione e sviluppo : Alexandra Zaïnal
Concezione : Baudouin d'Aumeries
Supporto tecnico e logistico : Manuel Goepfert
Aiuto : Marc-Olivier Méhu
Aiuto per la traduzione : Arnaldo La Scala




FONTI E CREDITI :

   NOAA